Time;durP1;ratioP1;P1;durP2;ratioP2;P2;SDS_P1;SDS_P2;PMS_P1;PMS_P2;Temp;Humidity;BMP_temperature;BMP_pressure;BME280_temperature;BME280_humidity;BME280_pressure;Samples;Min_cycle;Max_cycle;Signal;HPM_P1;HPM_P2
2022/08/19 00:01:43;;;;;;;9.83;5.12;;;;;;;22.61;59.68;100140.27;1759314;81;21060;-47
2022/08/19 00:04:11;;;;;;;11.08;4.53;;;;;;;22.57;59.57;100141.73;1756216;79;21075;-47
2022/08/19 00:06:39;;;;;;;8.80;4.90;;;;;;;22.53;59.67;100148.03;1752599;81;21195;-47
2022/08/19 00:09:08;;;;;;;9.03;4.90;;;;;;;22.52;59.64;100143.69;1751630;80;21491;-48
2022/08/19 00:11:36;;;;;;;11.68;4.47;;;;;;;22.56;59.40;100147.62;1752871;81;21110;-47
2022/08/19 00:14:08;;;;;;;8.83;5.15;;;;;;;22.57;59.26;100147.91;1754690;81;21074;-47
2022/08/19 00:16:35;;;;;;;9.60;5.10;;;;;;;22.57;59.52;100151.94;1754480;81;21091;-47
2022/08/19 00:19:03;;;;;;;9.13;4.87;;;;;;;22.54;59.17;100151.00;1752982;80;21137;-47
2022/08/19 00:21:29;;;;;;;10.00;5.15;;;;;;;22.53;59.39;100151.23;1753569;80;21127;-47
2022/08/19 00:24:00;;;;;;;11.68;4.85;;;;;;;22.50;59.44;100151.65;1753219;80;21094;-47
2022/08/19 00:26:27;;;;;;;13.45;5.20;;;;;;;22.50;59.49;100147.62;1752354;79;21118;-47
2022/08/19 00:28:54;;;;;;;12.33;5.00;;;;;;;22.44;59.48;100153.28;1757022;81;21130;-47
2022/08/19 00:31:21;;;;;;;9.80;4.97;;;;;;;22.39;59.74;100145.03;1760294;80;21127;-47
2022/08/19 00:33:50;;;;;;;7.90;4.17;;;;;;;22.38;59.86;100146.08;1761807;81;21071;-47
2022/08/19 00:36:16;;;;;;;12.90;5.47;;;;;;;22.42;59.83;100146.78;1755276;81;21099;-47
2022/08/19 00:38:42;;;;;;;11.18;5.60;;;;;;;22.44;59.64;100144.74;1753347;81;21063;-46
2022/08/19 00:41:14;;;;;;;10.53;4.62;;;;;;;22.45;59.87;100142.35;1753974;80;21064;-46
2022/08/19 00:43:41;;;;;;;10.28;4.97;;;;;;;22.45;59.80;100150.39;1759224;81;21097;-47
2022/08/19 00:46:07;;;;;;;9.50;4.92;;;;;;;22.42;59.93;100145.44;1755397;80;21102;-47
2022/08/19 00:48:35;;;;;;;11.93;4.80;;;;;;;22.39;59.95;100145.03;1755567;79;21047;-47
2022/08/19 00:51:02;;;;;;;12.25;5.20;;;;;;;22.36;60.00;100143.61;1754479;81;21055;-47
2022/08/19 00:53:29;;;;;;;9.23;4.55;;;;;;;22.33;60.12;100149.37;1727583;81;21062;-46
2022/08/19 00:55:58;;;;;;;10.63;5.03;;;;;;;22.28;60.17;100146.48;1754966;80;21087;-47
2022/08/19 00:58:27;;;;;;;8.45;5.00;;;;;;;22.33;60.18;100150.72;1727334;81;21041;-47
2022/08/19 01:00:54;;;;;;;11.63;5.20;;;;;;;22.36;60.19;100156.16;1754737;80;21091;-47
2022/08/19 01:03:23;;;;;;;8.43;4.90;;;;;;;22.30;60.21;100152.46;1754894;81;21021;-47
2022/08/19 01:05:50;;;;;;;7.65;5.05;;;;;;;22.25;60.26;100155.72;1756254;80;21446;-47
2022/08/19 01:08:18;;;;;;;11.40;5.28;;;;;;;22.22;60.48;100157.98;1758387;81;21189;-47
2022/08/19 01:10:50;;;;;;;9.03;5.12;;;;;;;22.18;60.65;100160.78;1752112;81;21550;-47
2022/08/19 01:13:19;;;;;;;12.85;5.62;;;;;;;22.15;60.71;100162.00;1757336;80;21094;-47
2022/08/19 01:15:49;;;;;;;12.82;5.35;;;;;;;22.10;60.79;100158.30;1669711;84;21102;-46
2022/08/19 01:18:17;;;;;;;7.95;5.03;;;;;;;22.10;60.73;100157.77;1674940;84;21074;-46
2022/08/19 01:20:43;;;;;;;12.13;5.15;;;;;;;22.12;60.63;100153.02;1700608;83;21157;-46
2022/08/19 01:23:11;;;;;;;10.50;5.30;;;;;;;22.11;60.66;100153.23;1700064;83;21115;-47
2022/08/19 01:25:49;;;;;;;9.83;5.20;;;;;;;22.06;60.62;100147.98;1670877;83;21665;-47
2022/08/19 01:28:20;;;;;;;14.90;5.92;;;;;;;21.99;60.77;100149.83;1697281;84;21102;-46
2022/08/19 01:30:47;;;;;;;9.70;5.33;;;;;;;21.91;61.01;100153.22;1701850;82;21054;-46
2022/08/19 01:33:14;;;;;;;9.65;5.60;;;;;;;21.83;61.31;100159.58;1752541;81;21129;-46
2022/08/19 01:35:40;;;;;;;9.50;4.85;;;;;;;21.77;61.58;100163.05;1749855;80;20998;-47
2022/08/19 01:38:10;;;;;;;12.45;5.33;;;;;;;21.73;61.82;100160.48;1753397;81;21086;-47
2022/08/19 01:40:40;;;;;;;11.30;5.42;;;;;;;21.74;61.95;100150.06;1745207;80;21627;-47
2022/08/19 01:43:06;;;;;;;11.08;6.00;;;;;;;21.73;62.13;100146.56;1743091;81;21064;-47
2022/08/19 01:45:34;;;;;;;13.83;5.78;;;;;;;21.73;62.61;100141.73;1749549;80;21095;-47
2022/08/19 01:48:01;;;;;;;9.83;5.65;;;;;;;21.72;62.61;100143.59;1752644;80;21069;-47
2022/08/19 01:50:27;;;;;;;9.23;5.47;;;;;;;21.69;62.50;100142.13;1748690;81;21048;-46
2022/08/19 01:52:54;;;;;;;11.48;5.45;;;;;;;21.64;62.67;100135.74;1743550;80;21048;-46
2022/08/19 01:55:23;;;;;;;8.08;4.85;;;;;;;21.64;62.78;100134.41;1748397;81;21114;-46
2022/08/19 01:57:54;;;;;;;10.98;5.58;;;;;;;21.67;62.79;100134.82;1726736;82;21147;-46
2022/08/19 02:00:22;;;;;;;11.55;5.72;;;;;;;21.69;62.81;100141.31;1745285;80;21056;-46
2022/08/19 02:02:49;;;;;;;9.60;5.33;;;;;;;21.65;63.10;100146.25;1751232;81;21029;-46
2022/08/19 02:05:17;;;;;;;10.18;5.35;;;;;;;21.59;63.32;100145.70;1749932;80;21544;-46
2022/08/19 02:07:44;;;;;;;11.65;5.90;;;;;;;21.55;63.51;100151.13;1746283;81;21547;-46
2022/08/19 02:10:17;;;;;;;7.30;5.12;;;;;;;21.52;63.51;100148.36;1744655;80;21396;-46
2022/08/19 02:12:44;;;;;;;7.12;4.95;;;;;;;21.51;63.34;100153.91;1740212;81;22357;-49
2022/08/19 02:15:11;;;;;;;11.28;5.80;;;;;;;21.54;63.23;100155.37;1752484;80;21542;-46
2022/08/19 02:17:38;;;;;;;9.75;5.30;;;;;;;21.54;63.16;100154.86;1732586;81;21073;-46
2022/08/19 02:20:07;;;;;;;8.25;5.50;;;;;;;21.51;63.38;100156.59;1732163;80;21573;-46
2022/08/19 02:22:35;;;;;;;11.88;6.10;;;;;;;21.47;63.52;100148.14;1745083;81;21090;-48
2022/08/19 02:25:02;;;;;;;15.65;5.95;;;;;;;21.44;63.45;100148.50;1753150;80;21031;-46
2022/08/19 02:27:28;;;;;;;9.05;5.22;;;;;;;21.38;63.57;100144.45;1750725;80;21585;-46
2022/08/19 02:29:57;;;;;;;13.58;5.08;;;;;;;21.34;63.61;100146.71;1747149;81;21150;-46
2022/08/19 02:32:23;;;;;;;10.82;5.33;;;;;;;21.38;63.61;100148.47;1747746;80;21058;-47
2022/08/19 02:34:50;;;;;;;11.20;5.30;;;;;;;21.38;63.32;100143.13;1743008;81;21547;-46
2022/08/19 02:40:02;;;;;;;8.37;5.43;;;;;;;21.33;63.33;100143.71;1745207;80;21087;-47
2022/08/19 02:42:31;;;;;;;9.23;5.28;;;;;;;21.29;63.68;100153.17;1750673;80;21000;-47
2022/08/19 02:44:57;;;;;;;11.10;5.62;;;;;;;21.25;63.86;100160.78;1751612;81;21039;-46
2022/08/19 02:47:24;;;;;;;11.65;5.72;;;;;;;21.24;63.77;100158.30;1753250;80;21249;-46
2022/08/19 02:49:50;;;;;;;11.90;5.20;;;;;;;21.24;63.77;100159.12;1752496;81;21057;-47
2022/08/19 02:52:17;;;;;;;13.22;5.67;;;;;;;21.25;63.84;100159.93;1751103;80;21015;-46
2022/08/19 02:54:44;;;;;;;10.05;5.62;;;;;;;21.20;63.96;100151.67;1750664;81;21138;-46
2022/08/19 02:57:10;;;;;;;8.28;6.08;;;;;;;21.18;63.81;100160.42;1751890;81;21105;-47
2022/08/19 02:59:37;;;;;;;9.18;5.70;;;;;;;21.14;63.80;100146.61;1743309;80;21138;-46
2022/08/19 03:02:04;;;;;;;8.00;5.47;;;;;;;21.08;63.98;100153.59;1732124;81;21043;-46
2022/08/19 03:04:31;;;;;;;10.98;5.70;;;;;;;21.07;64.06;100150.59;1747838;80;21111;-47
2022/08/19 03:06:58;;;;;;;11.70;5.33;;;;;;;21.05;63.96;100152.64;1745187;80;21111;-46
2022/08/19 03:09:25;;;;;;;11.75;5.50;;;;;;;21.05;64.16;100160.67;1759359;81;21055;-46
2022/08/19 03:11:51;;;;;;;9.90;6.17;;;;;;;20.98;64.36;100153.13;1751438;80;21137;-46
2022/08/19 03:14:18;;;;;;;9.98;5.45;;;;;;;20.97;64.32;100150.94;1748306;81;21025;-47
2022/08/19 03:16:49;;;;;;;9.43;5.30;;;;;;;20.93;64.43;100144.34;1755128;80;21125;-46
2022/08/19 03:19:17;;;;;;;12.93;5.33;;;;;;;20.94;64.49;100147.31;1755742;80;21125;-47
2022/08/19 03:21:47;;;;;;;12.40;5.20;;;;;;;20.96;64.52;100151.98;1751362;80;21193;-46
2022/08/19 03:24:14;;;;;;;9.90;5.53;;;;;;;21.02;64.52;100158.38;1756685;81;22053;-46
2022/08/19 03:26:42;;;;;;;10.93;6.40;;;;;;;20.99;64.34;100159.30;1753733;80;21426;-46
2022/08/19 03:29:10;;;;;;;10.75;5.90;;;;;;;20.97;64.32;100165.66;1750144;81;21063;-46
2022/08/19 03:31:37;;;;;;;10.50;6.40;;;;;;;20.95;64.40;100170.38;1745803;80;21047;-47
2022/08/19 03:34:04;;;;;;;9.45;5.60;;;;;;;20.92;64.30;100172.10;1746558;81;21541;-47
2022/08/19 03:36:31;;;;;;;7.95;5.70;;;;;;;20.92;64.22;100180.13;1735739;80;21586;-47
2022/08/19 03:39:00;;;;;;;15.55;6.37;;;;;;;20.95;64.22;100179.73;1748096;81;21073;-46
2022/08/19 03:41:41;;;;;;;11.28;5.35;;;;;;;20.97;64.28;100187.57;1750753;80;21058;-47
2022/08/19 03:44:08;;;;;;;12.00;5.72;;;;;;;20.95;64.17;100186.42;1753481;80;21070;-46
2022/08/19 03:46:36;;;;;;;11.08;6.55;;;;;;;20.94;64.26;100188.77;1754202;81;21546;-47
2022/08/19 03:49:06;;;;;;;9.48;5.95;;;;;;;20.94;64.32;100192.78;1749481;81;22340;-46
2022/08/19 03:51:37;;;;;;;8.88;5.97;;;;;;;20.96;64.23;100208.64;1746595;80;21048;-47
2022/08/19 03:54:07;;;;;;;11.60;6.35;;;;;;;21.03;64.02;100217.56;1746810;81;21059;-47
2022/08/19 03:56:36;;;;;;;12.63;6.12;;;;;;;21.09;63.56;100221.28;1748475;80;21035;-47
2022/08/19 03:59:02;;;;;;;14.40;6.20;;;;;;;21.09;63.61;100225.30;1752121;81;21058;-47
2022/08/19 04:01:29;;;;;;;8.15;6.10;;;;;;;21.10;63.69;100222.95;1756053;80;21145;-47
2022/08/19 04:03:56;;;;;;;9.63;5.60;;;;;;;21.10;63.78;100220.28;1751915;81;21039;-47
2022/08/19 04:06:27;;;;;;;11.85;5.78;;;;;;;21.11;63.77;100223.25;1748356;81;21090;-47
2022/08/19 04:08:54;;;;;;;10.45;5.80;;;;;;;21.11;63.71;100219.23;1752308;80;21504;-47
2022/08/19 04:11:24;;;;;;;8.18;5.40;;;;;;;21.17;63.82;100208.28;1752589;80;21449;-47
2022/08/19 04:13:52;;;;;;;11.60;5.53;;;;;;;21.20;63.60;100209.20;1752408;81;21087;-47
2022/08/19 04:16:21;;;;;;;7.70;5.50;;;;;;;21.18;63.38;100212.59;1755182;81;21106;-47
2022/08/19 04:18:48;;;;;;;10.08;5.42;;;;;;;21.18;63.67;100209.39;1744720;80;21067;-47
2022/08/19 04:21:19;;;;;;;12.78;6.12;;;;;;;21.18;63.67;100213.41;1750150;81;21121;-47
2022/08/19 04:23:46;;;;;;;12.25;5.47;;;;;;;21.17;63.63;100210.44;1744204;80;21122;-47
2022/08/19 04:26:16;;;;;;;13.08;5.80;;;;;;;21.18;63.32;100224.63;1758760;80;21144;-46
2022/08/19 04:28:43;;;;;;;11.18;5.70;;;;;;;21.23;63.35;100212.83;1746270;81;21098;-46
2022/08/19 04:31:16;;;;;;;9.13;5.35;;;;;;;21.27;63.43;100210.09;1754899;81;21057;-47
2022/08/19 04:33:43;;;;;;;10.32;5.70;;;;;;;21.29;63.11;100218.73;1749817;81;21104;-46
2022/08/19 04:36:20;;;;;;;14.03;5.95;;;;;;;21.26;62.79;100212.44;1755245;81;21130;-46
2022/08/19 04:38:48;;;;;;;8.35;5.42;;;;;;;21.22;63.14;100217.88;1744140;80;21112;-46
2022/08/19 04:44:02;;;;;;;11.90;5.17;;;;;;;21.20;62.90;100229.27;1753954;81;21103;-46
2022/08/19 04:46:31;;;;;;;8.28;5.55;;;;;;;21.26;62.89;100219.13;1756657;81;21116;-46
2022/08/19 04:49:01;;;;;;;9.08;5.95;;;;;;;21.32;63.21;100221.02;1756300;81;21063;-46
2022/08/19 04:51:27;;;;;;;10.40;5.67;;;;;;;21.35;62.99;100220.63;1748144;80;21179;-46
2022/08/19 04:53:54;;;;;;;9.58;5.65;;;;;;;21.37;62.74;100221.75;1751795;80;21064;-46
2022/08/19 04:56:22;;;;;;;9.13;5.60;;;;;;;21.38;62.60;100220.73;1751465;80;21100;-47
2022/08/19 04:58:52;;;;;;;11.53;5.58;;;;;;;21.36;62.33;100224.95;1746814;81;21149;-47
2022/08/19 05:01:22;;;;;;;9.35;5.00;;;;;;;21.36;62.36;100230.81;1747870;81;21067;-46
2022/08/19 05:03:49;;;;;;;10.40;6.28;;;;;;;21.41;62.13;100233.73;1750483;81;21112;-46
2022/08/19 05:06:17;;;;;;;11.18;6.03;;;;;;;21.41;61.64;100232.39;1740931;80;21114;-46
2022/08/19 05:08:44;;;;;;;13.22;5.78;;;;;;;21.41;61.59;100227.03;1731363;81;21078;-46
2022/08/19 05:11:19;;;;;;;14.85;5.95;;;;;;;21.40;61.85;100232.06;1743140;81;21067;-46
2022/08/19 05:13:48;;;;;;;8.38;5.30;;;;;;;21.39;61.97;100225.89;1744906;81;21049;-47
2022/08/19 05:16:17;;;;;;;12.13;5.47;;;;;;;21.39;61.75;100226.41;1727538;83;21134;-46
2022/08/19 05:24:14;;;;;;;10.15;5.30;;;;;;;21.50;61.81;100227.20;1745900;80;21164;-46
2022/08/19 05:26:45;;;;;;;9.43;5.95;;;;;;;21.52;61.79;100227.86;1748171;80;21112;-47
2022/08/19 05:29:14;;;;;;;11.10;6.15;;;;;;;21.55;61.96;100237.32;1748113;80;21285;-46
2022/08/19 05:31:40;;;;;;;10.00;5.30;;;;;;;21.55;61.87;100245.36;1751836;81;20993;-46
2022/08/19 05:34:07;;;;;;;12.28;5.85;;;;;;;21.60;62.20;100249.11;1754501;81;21149;-46
2022/08/19 05:36:39;;;;;;;11.60;5.40;;;;;;;21.68;61.42;100260.15;1753066;81;21004;-47
2022/08/19 05:39:07;;;;;;;10.53;5.55;;;;;;;21.75;61.93;100254.82;1749144;81;21079;-46
2022/08/19 05:41:35;;;;;;;8.88;5.55;;;;;;;21.80;61.74;100256.39;1749387;80;21088;-46
2022/08/19 05:44:05;;;;;;;14.05;6.45;;;;;;;21.84;61.71;100256.31;1747834;81;21098;-46
2022/08/19 05:46:32;;;;;;;12.45;5.72;;;;;;;21.88;61.40;100257.55;1753220;81;21049;-46
2022/08/19 05:48:58;;;;;;;11.93;5.72;;;;;;;21.92;61.44;100261.47;1748292;80;21041;-46
2022/08/19 05:51:25;;;;;;;10.58;5.87;;;;;;;21.93;61.02;100250.27;1748146;80;21544;-46
2022/08/19 05:53:52;;;;;;;12.70;5.87;;;;;;;21.95;61.20;100242.84;1747937;81;22000;-46
2022/08/19 05:56:20;;;;;;;12.40;6.00;;;;;;;22.02;60.46;100236.50;1752055;81;21510;-46
2022/08/19 05:58:47;;;;;;;11.30;5.78;;;;;;;22.04;59.92;100237.61;1746972;80;21641;-47
2022/08/19 06:01:16;;;;;;;10.32;5.97;;;;;;;22.04;60.15;100233.59;1731411;80;21640;-46
2022/08/19 06:03:43;;;;;;;11.20;5.75;;;;;;;22.08;60.23;100234.85;1729144;81;21063;-46
2022/08/19 06:06:11;;;;;;;10.60;5.35;;;;;;;22.12;59.53;100235.27;1752713;81;21142;-46
2022/08/19 06:08:38;;;;;;;11.00;5.40;;;;;;;22.12;59.58;100245.47;1753735;81;21119;-47
2022/08/19 06:11:25;;;;;;;12.40;5.58;;;;;;;22.13;59.91;100241.77;1753877;80;21052;-49
2022/08/19 06:13:53;;;;;;;13.55;6.20;;;;;;;22.20;59.95;100245.28;1740651;80;21562;-46
2022/08/19 06:16:25;;;;;;;9.33;5.72;;;;;;;22.28;59.93;100244.31;1744736;80;22260;-47
2022/08/19 06:18:52;;;;;;;12.05;5.40;;;;;;;22.33;59.64;100235.67;1751318;81;21065;-46
2022/08/19 06:21:23;;;;;;;15.38;5.72;;;;;;;22.38;59.30;100239.38;1751995;81;21182;-47
2022/08/19 06:23:51;;;;;;;9.08;5.17;;;;;;;22.42;59.67;100241.13;1749175;80;21030;-47
2022/08/19 06:26:19;;;;;;;18.23;5.75;;;;;;;22.45;59.42;100236.70;1753368;80;21138;-47
2022/08/19 06:28:47;;;;;;;12.00;5.53;;;;;;;22.47;59.13;100245.89;1750596;81;21107;-46
2022/08/19 06:31:20;;;;;;;10.90;5.58;;;;;;;22.51;59.78;100241.75;1751308;80;21265;-46
2022/08/19 06:33:47;;;;;;;10.38;5.50;;;;;;;22.59;59.52;100234.36;1748178;81;21096;-46
2022/08/19 06:36:33;;;;;;;9.08;6.00;;;;;;;22.66;58.72;100237.55;1753706;81;21047;-47
2022/08/19 06:39:07;;;;;;;10.05;5.72;;;;;;;22.66;58.80;100239.70;1749945;81;21051;-46
2022/08/19 06:41:37;;;;;;;9.43;5.05;;;;;;;22.69;59.69;100246.00;1753541;81;21059;-47
2022/08/19 06:44:04;;;;;;;11.28;6.35;;;;;;;22.75;59.44;100242.50;1747098;81;21061;-47
2022/08/19 06:46:31;;;;;;;10.23;6.35;;;;;;;22.80;59.48;100244.57;1741323;80;21075;-47
2022/08/19 06:48:58;;;;;;;9.50;6.12;;;;;;;22.86;59.18;100244.25;1754063;81;21048;-46
2022/08/19 06:51:25;;;;;;;12.80;6.28;;;;;;;22.88;58.93;100238.16;1754191;81;21039;-46
2022/08/19 06:53:53;;;;;;;11.40;5.65;;;;;;;22.92;58.46;100238.88;1753359;81;21055;-46
2022/08/19 06:56:33;;;;;;;15.45;5.55;;;;;;;22.99;58.29;100241.56;1746049;80;21102;-47
2022/08/19 06:58:55;;;;;;;10.03;6.63;;;;;;;23.01;57.92;100240.83;1750982;80;21063;-47
2022/08/19 07:01:22;;;;;;;13.98;6.65;;;;;;;23.00;58.37;100244.56;1744766;80;21479;-47
2022/08/19 07:03:48;;;;;;;11.90;5.85;;;;;;;23.02;58.05;100239.80;1745619;80;21087;-46
2022/08/19 07:06:17;;;;;;;15.45;6.97;;;;;;;23.00;58.27;100232.48;1744594;81;21088;-46
2022/08/19 07:08:46;;;;;;;12.63;6.47;;;;;;;23.03;58.24;100245.46;1751064;81;21141;-46
2022/08/19 07:11:15;;;;;;;12.82;6.75;;;;;;;23.07;58.32;100246.75;1750713;81;21571;-47
2022/08/19 07:13:43;;;;;;;8.48;5.47;;;;;;;23.09;58.33;100250.56;1749437;80;21057;-46
2022/08/19 07:16:13;;;;;;;15.88;6.25;;;;;;;23.14;58.02;100248.89;1752315;80;21025;-46
2022/08/19 07:18:39;;;;;;;14.83;6.25;;;;;;;23.24;58.34;100255.70;1751724;81;21118;-46
2022/08/19 07:21:12;;;;;;;13.95;6.03;;;;;;;23.33;57.41;100254.44;1746180;80;21157;-47
2022/08/19 07:23:39;;;;;;;9.75;5.65;;;;;;;23.39;57.65;100259.50;1753812;81;21563;-47
2022/08/19 07:26:16;;;;;;;11.35;5.87;;;;;;;23.46;57.72;100254.93;1749227;80;21106;-47
2022/08/19 07:28:44;;;;;;;15.32;6.30;;;;;;;23.48;57.30;100246.95;1753290;80;21118;-47
2022/08/19 07:31:19;;;;;;;17.25;6.42;;;;;;;23.51;57.19;100240.35;1754379;81;21012;-47
2022/08/19 07:33:47;;;;;;;13.35;6.05;;;;;;;23.51;57.31;100241.17;1758033;80;21958;-47
2022/08/19 07:36:16;;;;;;;13.00;6.80;;;;;;;23.53;56.91;100233.72;1754249;79;21052;-47
2022/08/19 07:38:46;;;;;;;11.83;5.60;;;;;;;23.53;57.29;100228.34;1754295;81;20978;-46
2022/08/19 07:41:16;;;;;;;13.00;5.92;;;;;;;23.54;56.81;100230.01;1734963;81;21020;-46
2022/08/19 07:43:43;;;;;;;10.75;5.47;;;;;;;23.55;57.50;100228.98;1750954;81;21074;-46
2022/08/19 07:46:11;;;;;;;19.35;6.08;;;;;;;23.64;58.01;100238.97;1755679;79;21372;-46
2022/08/19 07:48:37;;;;;;;13.55;5.85;;;;;;;23.76;57.25;100240.47;1745749;80;21100;-46
2022/08/19 07:51:07;;;;;;;10.95;5.78;;;;;;;23.85;57.00;100251.29;1734888;79;21032;-47
2022/08/19 07:53:35;;;;;;;12.70;6.15;;;;;;;23.91;57.38;100253.13;1733234;82;21106;-46
2022/08/19 07:56:03;;;;;;;13.93;6.22;;;;;;;24.02;56.97;100260.21;1733090;81;21020;-47
2022/08/19 07:58:32;;;;;;;10.25;6.05;;;;;;;24.08;56.67;100263.39;1733678;82;21005;-47
2022/08/19 08:00:59;;;;;;;11.93;6.33;;;;;;;24.14;56.42;100259.02;1734882;81;21489;-47
2022/08/19 08:09:20;;;;;;;12.13;6.97;;;;;;;24.14;55.86;100253.64;1750322;80;21077;-48
2022/08/19 08:11:49;;;;;;;13.45;5.90;;;;;;;24.13;56.01;100254.17;1753628;81;21895;-48
2022/08/19 08:14:22;;;;;;;9.08;5.53;;;;;;;24.14;56.47;100252.30;1755266;81;21078;-48
2022/08/19 08:16:50;;;;;;;12.33;6.08;;;;;;;24.18;55.99;100248.97;1752560;79;21519;-47
2022/08/19 08:19:19;;;;;;;14.95;6.55;;;;;;;24.21;56.32;100248.54;1758058;80;21047;-48
2022/08/19 08:21:45;;;;;;;10.90;5.47;;;;;;;24.25;56.58;100240.33;1755452;79;21146;-48
2022/08/19 08:24:12;;;;;;;15.55;5.87;;;;;;;24.34;56.66;100239.55;1753088;79;21182;-48
2022/08/19 08:26:39;;;;;;;12.00;5.72;;;;;;;24.49;56.63;100250.00;1752435;81;21126;-48
2022/08/19 08:29:10;;;;;;;11.85;6.10;;;;;;;24.60;56.44;100260.09;1754252;80;21028;-48
2022/08/19 08:31:34;;;;;;;17.50;6.17;;;;;;;24.71;55.90;100258.55;1748475;81;21065;-48
2022/08/19 08:34:01;;;;;;;10.63;6.78;;;;;;;24.78;55.41;100255.80;1751063;80;21047;-48
2022/08/19 08:36:28;;;;;;;16.20;6.90;;;;;;;24.82;55.36;100259.72;1741706;80;21303;-48
2022/08/19 08:38:56;;;;;;;9.55;5.70;;;;;;;24.85;54.76;100262.80;1752159;81;21091;-48
2022/08/19 08:41:46;;;;;;;12.35;6.80;;;;;;;24.87;54.68;100259.89;1751249;80;21116;-49
2022/08/19 08:44:20;;;;;;;9.68;5.72;;;;;;;24.86;55.46;100259.57;1746805;81;21024;-48
2022/08/19 08:46:53;;;;;;;12.75;5.92;;;;;;;24.87;55.05;100265.80;1751791;80;21012;-48
2022/08/19 08:49:57;;;;;;;11.80;6.12;;;;;;;24.88;54.73;100272.31;1752106;80;21057;-47
2022/08/19 08:52:28;;;;;;;12.07;6.05;;;;;;;24.90;54.16;100266.18;1709873;81;21061;-48
2022/08/19 08:54:58;;;;;;;10.40;5.92;;;;;;;24.88;54.49;100270.97;1747196;80;21056;-48
2022/08/19 08:57:45;;;;;;;14.45;6.35;;;;;;;24.89;55.30;100264.52;1754405;81;21091;-48
2022/08/19 09:00:17;;;;;;;10.48;5.83;;;;;;;24.92;54.19;100264.08;1750300;81;21106;-48
2022/08/19 09:02:44;;;;;;;10.68;6.00;;;;;;;24.95;54.83;100262.30;1751253;81;21126;-48
2022/08/19 09:05:12;;;;;;;9.78;5.97;;;;;;;25.01;54.85;100256.02;1748926;81;21048;-48
2022/08/19 09:08:02;;;;;;;11.08;6.17;;;;;;;25.06;54.98;100258.58;1746463;80;21113;-48
2022/08/19 09:10:34;;;;;;;11.90;6.55;;;;;;;25.09;54.97;100255.45;1747483;81;21060;-48
2022/08/19 09:13:36;;;;;;;11.15;6.03;;;;;;;25.13;55.33;100267.41;1735012;80;21143;-48
2022/08/19 09:16:13;;;;;;;8.80;6.15;;;;;;;25.16;54.77;100269.13;1729052;80;21351;-46
2022/08/19 09:18:46;;;;;;;11.55;5.87;;;;;;;25.22;54.58;100266.91;1728300;82;21111;-46
2022/08/19 09:21:15;;;;;;;12.23;6.37;;;;;;;25.26;54.42;100266.47;1741513;80;21052;-46
2022/08/19 09:23:43;;;;;;;14.87;6.37;;;;;;;25.30;54.08;100267.19;1728688;81;21496;-46
2022/08/19 09:26:13;;;;;;;11.73;5.95;;;;;;;25.33;54.11;100269.41;1749131;80;21036;-46
2022/08/19 09:28:44;;;;;;;12.28;5.90;;;;;;;25.35;54.19;100261.95;1756320;79;21192;-46
2022/08/19 09:31:13;;;;;;;10.68;5.75;;;;;;;25.42;55.17;100272.66;1759754;80;21064;-46
2022/08/19 09:33:40;;;;;;;9.90;5.30;;;;;;;25.49;54.91;100273.93;1756787;80;21737;-46
2022/08/19 09:36:09;;;;;;;12.65;6.42;;;;;;;25.59;54.49;100276.92;1744883;79;21608;-47
2022/08/19 09:38:39;;;;;;;10.55;6.20;;;;;;;25.73;54.65;100278.93;1761495;81;21573;-46
2022/08/19 09:41:13;;;;;;;12.20;6.15;;;;;;;25.87;53.76;100280.94;1752640;80;21134;-47
2022/08/19 09:43:38;;;;;;;10.32;5.58;;;;;;;25.94;53.69;100287.05;1752710;80;21056;-46
2022/08/19 09:46:06;;;;;;;12.93;6.20;;;;;;;25.98;53.48;100290.99;1756318;81;21486;-47
2022/08/19 09:48:33;;;;;;;10.72;5.78;;;;;;;26.00;53.28;100290.77;1757280;81;21084;-47
2022/08/19 09:51:11;;;;;;;12.85;6.12;;;;;;;26.03;53.04;100291.13;1759146;81;21098;-46
2022/08/19 09:53:38;;;;;;;10.48;6.17;;;;;;;26.03;53.00;100288.44;1754993;81;21139;-46
2022/08/19 09:56:06;;;;;;;10.32;5.90;;;;;;;26.03;52.88;100283.05;1758556;79;21047;-47
2022/08/19 09:58:33;;;;;;;7.90;5.95;;;;;;;26.08;52.79;100271.59;1756865;80;21526;-47
2022/08/19 10:01:01;;;;;;;11.08;5.55;;;;;;;26.15;53.12;100279.05;1755513;80;21526;-46
2022/08/19 10:03:29;;;;;;;14.40;6.40;;;;;;;26.23;52.60;100287.36;1757187;81;21015;-47
2022/08/19 10:05:55;;;;;;;11.28;5.78;;;;;;;26.32;52.40;100290.02;1758372;80;21220;-47
2022/08/19 10:08:25;;;;;;;9.73;5.85;;;;;;;26.40;51.98;100291.04;1757184;80;21106;-47
2022/08/19 10:10:52;;;;;;;11.83;5.55;;;;;;;26.48;52.49;100292.60;1752506;80;21074;-46
2022/08/19 10:13:24;;;;;;;11.95;6.35;;;;;;;26.64;52.80;100284.39;1752851;80;21001;-46
2022/08/19 10:15:56;;;;;;;16.12;6.37;;;;;;;26.81;52.36;100281.83;1756964;79;21020;-46
2022/08/19 10:18:22;;;;;;;8.20;6.15;;;;;;;26.87;51.18;100291.70;1755584;80;21278;-47
2022/08/19 10:20:50;;;;;;;11.53;5.92;;;;;;;26.79;51.27;100291.51;1755218;79;21075;-47
2022/08/19 10:23:18;;;;;;;10.72;6.65;;;;;;;26.72;51.83;100294.03;1751627;81;21614;-46
2022/08/19 10:25:44;;;;;;;16.12;7.15;;;;;;;26.67;51.80;100292.02;1732567;82;21031;-47
2022/08/19 10:28:11;;;;;;;11.55;6.22;;;;;;;26.60;52.11;100294.80;1732535;81;21055;-50
2022/08/19 10:30:39;;;;;;;13.28;6.47;;;;;;;26.50;51.73;100307.48;1737564;80;21307;-47
2022/08/19 10:33:06;;;;;;;13.08;6.87;;;;;;;26.48;52.53;100315.53;1743554;81;21051;-47
2022/08/19 10:35:33;;;;;;;9.40;6.03;;;;;;;26.50;52.50;100311.53;1739763;81;21134;-47
2022/08/19 10:39:05;;;;;;;15.55;6.40;;;;;;;26.59;52.75;100316.61;1796326;79;22592;-46
2022/08/19 10:41:34;;;;;;;14.53;6.78;;;;;;;26.63;52.28;100322.70;1754444;80;21121;-47
2022/08/19 10:44:04;;;;;;;10.20;6.72;;;;;;;26.60;52.12;100310.98;1733907;81;21494;-47
2022/08/19 10:46:35;;;;;;;9.33;6.12;;;;;;;26.56;52.59;100321.11;1753056;80;20983;-47
2022/08/19 10:49:04;;;;;;;10.82;6.20;;;;;;;26.53;52.55;100318.87;1715718;83;21113;-47
2022/08/19 10:54:16;;;;;;;;;;;;;;;26.38;52.42;100330.92;1699884;83;21571;-47
2022/08/19 10:56:51;;;;;;;13.22;6.78;;;;;;;26.33;52.80;100333.48;1701774;83;21751;-47
2022/08/19 10:59:23;;;;;;;;;;;;;;;26.29;52.78;100339.86;1702230;83;21065;-48
2022/08/19 11:01:50;;;;;;;12.63;6.75;;;;;;;26.28;53.59;100339.55;1695721;83;20247;-47
2022/08/19 11:04:18;;;;;;;9.40;6.67;;;;;;;26.27;53.26;100351.91;1699639;82;21087;-46
2022/08/19 11:06:47;;;;;;;11.90;6.95;;;;;;;26.22;53.58;100349.08;1703029;83;21522;-47
2022/08/19 11:09:23;;;;;;;14.55;6.90;;;;;;;26.20;53.78;100356.05;1702285;83;21198;-47
2022/08/19 11:11:52;;;;;;;9.68;6.42;;;;;;;26.19;53.66;100358.96;1699664;83;21559;-47
2022/08/19 11:14:20;;;;;;;9.80;6.65;;;;;;;26.19;53.69;100354.38;1703550;83;21056;-48
2022/08/19 11:16:48;;;;;;;9.53;6.10;;;;;;;26.25;53.91;100352.67;1707074;82;21153;-48
2022/08/19 11:19:18;;;;;;;14.20;6.40;;;;;;;26.29;53.49;100341.71;1704668;83;21074;-49
2022/08/19 11:21:46;;;;;;;15.05;7.28;;;;;;;26.29;53.63;100353.84;1709264;83;21251;-47
2022/08/19 11:24:21;;;;;;;12.82;6.87;;;;;;;26.34;53.91;100355.34;1702049;83;21622;-47
2022/08/19 11:26:50;;;;;;;11.38;6.35;;;;;;;26.37;53.89;100352.72;1704789;83;21071;-50
2022/08/19 11:29:18;;;;;;;10.68;5.80;;;;;;;26.41;53.61;100348.00;1682776;83;21060;-48
2022/08/19 11:31:48;;;;;;;10.25;6.12;;;;;;;26.46;53.13;100350.83;1705307;82;21118;-47
2022/08/19 11:34:25;;;;;;;9.08;5.97;;;;;;;26.51;53.18;100340.17;1682336;83;21217;-47
2022/08/19 11:36:52;;;;;;;11.35;6.92;;;;;;;26.59;52.90;100335.50;1684563;83;21071;-48
2022/08/19 11:39:20;;;;;;;9.03;5.92;;;;;;;26.67;52.85;100336.02;1683111;83;21066;-48
2022/08/19 11:41:47;;;;;;;12.20;5.28;;;;;;;26.80;52.97;100330.14;1697935;83;21066;-48
2022/08/19 11:44:14;;;;;;;11.20;5.87;;;;;;;26.92;52.93;100324.77;1707245;83;21066;-50
2022/08/19 11:46:45;;;;;;;9.95;6.60;;;;;;;27.04;52.31;100329.64;1697522;83;21409;-47
2022/08/19 11:49:10;;;;;;;8.63;5.55;;;;;;;27.06;51.84;100321.58;1704177;82;21554;-47